Time;durP1;ratioP1;P1;durP2;ratioP2;P2;SDS_P1;SDS_P2;PMS_P1;PMS_P2;Temp;Humidity;BMP_temperature;BMP_pressure;BME280_temperature;BME280_humidity;BME280_pressure;Samples;Min_cycle;Max_cycle;Signal;HPM_P1;HPM_P2
2022/12/28 00:00:36;;;;;;;8.40;2.38;;;8.40;56.70;;;;;;5023082;28;20057;-49
2022/12/28 00:03:03;;;;;;;10.32;2.17;;;8.40;56.70;;;;;;5021353;28;20045;-47
2022/12/28 00:05:31;;;;;;;5.10;2.30;;;8.40;56.70;;;;;;5022345;28;20375;-48
2022/12/28 00:07:58;;;;;;;6.50;2.38;;;8.50;56.80;;;;;;5022799;28;20049;-48
2022/12/28 00:10:25;;;;;;;6.45;2.30;;;8.50;56.80;;;;;;5021692;28;20058;-45
2022/12/28 00:12:52;;;;;;;5.55;2.20;;;8.50;56.80;;;;;;5021827;28;20486;-47
2022/12/28 00:15:20;;;;;;;7.28;2.22;;;8.50;56.80;;;;;;5022812;28;20049;-46
2022/12/28 00:17:48;;;;;;;7.07;2.28;;;8.50;56.80;;;;;;5022230;28;20496;-48
2022/12/28 00:20:16;;;;;;;9.65;3.40;;;8.60;56.80;;;;;;5021102;28;20069;-49
2022/12/28 00:22:43;;;;;;;8.55;2.30;;;8.60;56.80;;;;;;5022607;28;20057;-48
2022/12/28 00:25:10;;;;;;;5.50;2.30;;;8.60;56.80;;;;;;5019580;28;20481;-46
2022/12/28 00:27:37;;;;;;;13.27;3.10;;;8.60;56.80;;;;;;5020998;28;20056;-48
2022/12/28 00:30:06;;;;;;;5.22;2.05;;;8.60;56.80;;;;;;5022779;28;20053;-45
2022/12/28 00:32:33;;;;;;;8.80;2.15;;;8.70;56.80;;;;;;5022519;28;20061;-49
2022/12/28 00:35:02;;;;;;;6.20;2.50;;;8.70;56.80;;;;;;5022726;28;20065;-49
2022/12/28 00:37:29;;;;;;;5.32;2.13;;;8.70;56.80;;;;;;5021638;28;20060;-45
2022/12/28 00:39:56;;;;;;;6.53;1.98;;;8.70;56.80;;;;;;5020090;28;20064;-50
2022/12/28 00:42:23;;;;;;;4.35;1.90;;;8.70;56.80;;;;;;5022229;28;20052;-50
2022/12/28 00:44:51;;;;;;;6.53;1.92;;;8.80;56.90;;;;;;5020400;28;20497;-47
2022/12/28 00:47:18;;;;;;;6.00;1.98;;;8.80;57.00;;;;;;5021160;28;20068;-49
2022/12/28 00:49:45;;;;;;;8.82;2.00;;;8.80;57.00;;;;;;5022056;28;20049;-51
2022/12/28 00:52:13;;;;;;;3.95;1.70;;;8.80;57.00;;;;;;5022037;28;20049;-46
2022/12/28 00:54:41;;;;;;;4.50;1.60;;;8.90;57.10;;;;;;5020884;28;20057;-46
2022/12/28 00:57:08;;;;;;;3.33;1.35;;;8.90;57.20;;;;;;5021258;28;20061;-45
2022/12/28 00:59:35;;;;;;;8.60;1.98;;;8.90;57.20;;;;;;5020394;28;20041;-48
2022/12/28 01:02:02;;;;;;;4.40;1.95;;;8.90;57.50;;;;;;5022268;28;20052;-44
2022/12/28 01:04:30;;;;;;;6.90;1.70;;;9.00;57.60;;;;;;5021743;28;20060;-45
2022/12/28 01:06:57;;;;;;;3.22;1.63;;;9.00;57.60;;;;;;5021064;28;20050;-51
2022/12/28 01:09:25;;;;;;;6.20;2.00;;;9.00;57.60;;;;;;5019658;28;20049;-47
2022/12/28 01:11:52;;;;;;;8.68;2.10;;;9.10;57.70;;;;;;5021822;28;20417;-47
2022/12/28 01:14:21;;;;;;;4.30;1.92;;;9.10;57.70;;;;;;5020420;28;20168;-49
2022/12/28 01:16:48;;;;;;;5.15;1.80;;;9.10;57.70;;;;;;5020545;28;20061;-49
2022/12/28 01:19:20;;;;;;;5.88;1.70;;;9.10;57.70;;;;;;5021386;28;20064;-47
2022/12/28 01:21:49;;;;;;;5.57;2.03;;;9.20;57.70;;;;;;5021518;28;20489;-48
2022/12/28 01:24:16;;;;;;;8.00;1.85;;;9.20;57.70;;;;;;5018592;28;20421;-45
2022/12/28 01:26:45;;;;;;;5.90;1.63;;;9.20;57.70;;;;;;5021633;28;20053;-49
2022/12/28 01:29:12;;;;;;;6.30;1.98;;;9.20;57.70;;;;;;5021735;28;20060;-46
2022/12/28 01:31:39;;;;;;;5.85;2.17;;;9.30;57.80;;;;;;5021049;28;20057;-48
2022/12/28 01:34:06;;;;;;;6.05;2.00;;;9.30;57.80;;;;;;5020314;28;20077;-46
2022/12/28 01:36:34;;;;;;;7.10;1.98;;;9.30;57.80;;;;;;5021734;28;20056;-48
2022/12/28 01:39:05;;;;;;;7.75;2.38;;;9.30;57.80;;;;;;5018755;28;20064;-46
2022/12/28 01:41:35;;;;;;;4.60;1.75;;;9.30;57.80;;;;;;5021257;28;20068;-47
2022/12/28 01:44:43;;;;;;;7.63;1.95;;;9.40;57.80;;;;;;5021033;28;20065;-47
2022/12/28 01:47:14;;;;;;;2.60;1.52;;;9.40;57.80;;;;;;5021319;28;20061;-48
2022/12/28 01:49:46;;;;;;;4.70;1.95;;;9.40;57.70;;;;;;5020235;28;20056;-50
2022/12/28 01:52:18;;;;;;;7.82;1.90;;;9.40;57.80;;;;;;5020671;28;20049;-50
2022/12/28 01:54:49;;;;;;;6.30;2.28;;;9.40;57.70;;;;;;5018723;28;20062;-48
2022/12/28 01:57:19;;;;;;;4.13;1.65;;;9.50;57.90;;;;;;5019719;28;20064;-47
2022/12/28 01:59:53;;;;;;;5.78;1.42;;;9.50;57.90;;;;;;5020506;28;20056;-48
2022/12/28 02:02:21;;;;;;;;;;;9.50;57.90;;;;;;5020581;28;20061;-45
2022/12/28 02:04:48;;;;;;;5.65;2.05;;;9.50;57.90;;;;;;5019439;28;19925;-45
2022/12/28 02:07:22;;;;;;;2.97;1.60;;;9.50;57.80;;;;;;5020668;28;20057;-44
2022/12/28 02:09:49;;;;;;;7.93;2.30;;;9.60;57.90;;;;;;5017416;28;20065;-45
2022/12/28 02:12:17;;;;;;;8.20;2.03;;;9.60;57.80;;;;;;5020593;28;20046;-45
2022/12/28 02:14:47;;;;;;;9.23;2.38;;;9.60;57.90;;;;;;5020473;28;20070;-46
2022/12/28 02:17:14;;;;;;;8.85;2.85;;;9.60;57.90;;;;;;5020215;28;20061;-45
2022/12/28 02:19:45;;;;;;;7.18;2.30;;;9.60;57.90;;;;;;5020149;28;20065;-50
2022/12/28 02:22:42;;;;;;;5.25;2.45;;;9.60;57.90;;;;;;5021193;28;20600;-48
2022/12/28 02:25:39;;;;;;;7.00;2.20;;;9.60;57.90;;;;;;4990085;28;20069;-50
2022/12/28 02:28:24;;;;;;;8.50;2.22;;;9.60;57.80;;;;;;5020270;28;20065;-44
2022/12/28 02:31:01;;;;;;;7.45;2.60;;;9.70;57.80;;;;;;5019795;28;20573;-47
2022/12/28 02:33:36;;;;;;;5.72;2.05;;;9.70;57.80;;;;;;5019861;28;20050;-51
2022/12/28 02:36:08;;;;;;;3.60;2.13;;;9.70;57.80;;;;;;5019614;28;20058;-45
2022/12/28 02:38:40;;;;;;;5.85;1.90;;;9.70;57.80;;;;;;5014789;28;20053;-48
2022/12/28 02:41:10;;;;;;;5.88;1.73;;;9.70;57.80;;;;;;5019938;28;20060;-46
2022/12/28 02:43:38;;;;;;;5.15;1.98;;;9.70;57.80;;;;;;5019767;28;20053;-49
2022/12/28 02:52:03;;;;;;;3.80;2.03;;;9.80;57.80;;;;;;5022105;28;20048;-48
2022/12/28 02:58:16;;;;;;;6.05;1.70;;;9.80;57.90;;;;;;5020548;28;20049;-48
2022/12/28 03:00:57;;;;;;;3.97;2.00;;;9.80;57.80;;;;;;5023640;28;20485;-46
2022/12/28 03:03:34;;;;;;;5.53;1.95;;;9.80;57.90;;;;;;5022613;28;20045;-47
2022/12/28 03:09:02;;;;;;;5.75;1.90;;;9.80;57.90;;;;;;5021844;28;20057;-45
2022/12/28 03:11:38;;;;;;;5.45;2.03;;;9.80;57.90;;;;;;5024830;28;20068;-50
2022/12/28 03:14:09;;;;;;;3.67;1.73;;;9.80;57.90;;;;;;5022622;28;20053;-47
2022/12/28 03:33:11;;;;;;;3.75;1.80;;;9.90;57.80;;;;;;5028151;28;20056;-45
2022/12/28 03:35:45;;;;;;;4.43;1.80;;;9.90;57.80;;;;;;5024368;28;20060;-48
2022/12/28 03:38:26;;;;;;;4.03;1.73;;;10.00;57.90;;;;;;5023446;28;20057;-48
2022/12/28 03:41:00;;;;;;;2.15;1.17;;;10.00;57.80;;;;;;5022721;28;20401;-47
2022/12/28 03:43:41;;;;;;;5.63;1.50;;;10.00;57.80;;;;;;5022952;28;20429;-47
2022/12/28 03:46:15;;;;;;;4.35;1.27;;;10.00;57.80;;;;;;5023123;28;20061;-43
2022/12/28 03:48:43;;;;;;;4.03;1.63;;;10.00;57.80;;;;;;5021869;28;20060;-42
2022/12/28 03:51:16;;;;;;;2.15;1.30;;;10.00;57.80;;;;;;5022784;28;20394;-43
2022/12/28 03:53:46;;;;;;;4.97;1.48;;;10.00;57.80;;;;;;5022138;28;20053;-45
2022/12/28 03:56:15;;;;;;;3.40;1.35;;;10.10;57.90;;;;;;5022347;28;20053;-44
2022/12/28 03:58:42;;;;;;;3.47;1.27;;;10.10;57.90;;;;;;5022374;28;20627;-42
2022/12/28 04:01:12;;;;;;;3.17;1.20;;;10.10;57.90;;;;;;5020474;28;20061;-46
2022/12/28 04:03:40;;;;;;;2.97;1.27;;;10.10;57.90;;;;;;5022905;28;20068;-47
2022/12/28 04:06:08;;;;;;;3.08;1.45;;;10.20;58.00;;;;;;5022696;28;20397;-47
2022/12/28 04:08:37;;;;;;;5.10;1.42;;;10.20;58.00;;;;;;5021568;28;20060;-45
2022/12/28 04:11:04;;;;;;;3.38;1.20;;;10.20;58.00;;;;;;5023014;28;20424;-45
2022/12/28 04:13:32;;;;;;;3.40;1.05;;;10.20;58.00;;;;;;5022933;28;20064;-48
2022/12/28 04:16:01;;;;;;;9.50;1.30;;;10.20;58.00;;;;;;5021060;28;20053;-47
2022/12/28 04:18:30;;;;;;;4.35;1.38;;;10.30;58.00;;;;;;5022578;28;20068;-46
2022/12/28 04:20:57;;;;;;;5.72;1.60;;;10.30;58.00;;;;;;5022326;28;20049;-43
2022/12/28 04:23:25;;;;;;;2.88;1.23;;;10.30;58.00;;;;;;5020496;28;20053;-46
2022/12/28 04:26:01;;;;;;;4.20;1.40;;;10.30;58.00;;;;;;5021646;28;20053;-45
2022/12/28 04:28:29;;;;;;;5.35;1.33;;;10.30;57.90;;;;;;5021470;28;20053;-46
2022/12/28 04:30:57;;;;;;;3.42;1.50;;;10.40;57.90;;;;;;5022291;28;20056;-44
2022/12/28 04:33:26;;;;;;;3.50;1.40;;;10.40;58.00;;;;;;5021712;28;20398;-45
2022/12/28 04:35:53;;;;;;;4.50;1.23;;;10.40;57.90;;;;;;5021931;28;20042;-46
2022/12/28 04:38:21;;;;;;;4.22;1.25;;;10.50;57.90;;;;;;5021379;28;20057;-47
2022/12/28 04:40:48;;;;;;;5.53;1.55;;;10.50;57.80;;;;;;5019388;28;20065;-47
2022/12/28 04:43:17;;;;;;;3.97;1.50;;;10.50;57.80;;;;;;5020816;28;20072;-44
2022/12/28 04:45:44;;;;;;;3.80;1.63;;;10.50;57.80;;;;;;5021574;28;20390;-49
2022/12/28 04:48:14;;;;;;;7.05;1.40;;;10.50;57.80;;;;;;5022140;28;20064;-45
2022/12/28 04:50:41;;;;;;;2.47;1.13;;;10.60;57.80;;;;;;5021396;28;20053;-47
2022/12/28 04:53:08;;;;;;;2.17;1.33;;;10.60;57.80;;;;;;5020095;28;20057;-47
2022/12/28 04:55:35;;;;;;;3.03;1.10;;;10.60;57.80;;;;;;5020248;28;20060;-44
2022/12/28 04:58:03;;;;;;;2.00;1.02;;;10.60;57.70;;;;;;5020761;28;20050;-46
2022/12/28 05:00:32;;;;;;;2.70;1.20;;;10.60;57.70;;;;;;5021039;28;21214;-46
2022/12/28 05:02:59;;;;;;;4.35;1.20;;;10.70;57.80;;;;;;5021367;28;20049;-47
2022/12/28 05:05:27;;;;;;;4.18;1.33;;;10.70;57.80;;;;;;5022022;28;20386;-45
2022/12/28 05:07:54;;;;;;;2.47;1.15;;;10.70;57.70;;;;;;5021491;28;20417;-45
2022/12/28 05:10:21;;;;;;;2.38;0.80;;;10.70;57.70;;;;;;5019197;28;20128;-45
2022/12/28 05:12:48;;;;;;;1.42;0.80;;;10.80;57.70;;;;;;5020650;28;20049;-46
2022/12/28 05:15:16;;;;;;;4.57;1.25;;;10.80;57.60;;;;;;5021307;28;20060;-45
2022/12/28 05:17:44;;;;;;;2.72;0.98;;;10.80;57.60;;;;;;5018717;28;20053;-47
2022/12/28 05:20:12;;;;;;;1.30;0.57;;;10.80;57.60;;;;;;5019593;28;20521;-44
2022/12/28 05:22:39;;;;;;;5.40;0.90;;;10.80;57.60;;;;;;5020728;28;20486;-44
2022/12/28 05:25:07;;;;;;;4.22;0.93;;;10.80;57.60;;;;;;5018837;28;20497;-47
2022/12/28 05:27:34;;;;;;;5.95;1.38;;;10.90;57.60;;;;;;5020324;28;20049;-46
2022/12/28 05:30:01;;;;;;;1.27;0.70;;;10.90;57.60;;;;;;5017645;28;20050;-45
2022/12/28 05:32:28;;;;;;;1.67;0.85;;;10.90;57.60;;;;;;5013693;28;20498;-46
2022/12/28 05:34:57;;;;;;;0.70;0.52;;;10.90;57.50;;;;;;5019794;28;20041;-44
2022/12/28 05:37:24;;;;;;;1.15;0.68;;;10.90;57.60;;;;;;5021095;28;20060;-45
2022/12/28 05:39:51;;;;;;;2.80;0.50;;;11.00;57.60;;;;;;5019322;28;20053;-47
2022/12/28 05:42:19;;;;;;;2.20;0.70;;;11.00;57.60;;;;;;5021243;28;20050;-44
2022/12/28 05:44:46;;;;;;;1.55;0.70;;;11.00;57.60;;;;;;5021825;28;20053;-46
2022/12/28 05:47:13;;;;;;;4.85;0.80;;;11.00;57.60;;;;;;5019082;28;20067;-45
2022/12/28 05:49:40;;;;;;;1.77;0.77;;;11.00;57.50;;;;;;5020357;28;20049;-47
2022/12/28 05:52:09;;;;;;;1.02;0.57;;;11.10;57.60;;;;;;5019905;28;20053;-45
2022/12/28 05:54:36;;;;;;;3.28;0.80;;;11.10;57.50;;;;;;5019319;28;20053;-45
2022/12/28 05:57:03;;;;;;;2.63;0.70;;;11.10;57.50;;;;;;5022031;28;21862;-47
2022/12/28 05:59:31;;;;;;;1.75;0.60;;;11.10;57.50;;;;;;5020634;28;20410;-46
2022/12/28 06:01:58;;;;;;;2.80;0.68;;;11.20;57.50;;;;;;5022112;28;20057;-44
2022/12/28 06:04:25;;;;;;;2.33;1.13;;;11.10;57.40;;;;;;5016655;28;20052;-46
2022/12/28 06:06:53;;;;;;;3.55;1.02;;;11.20;57.40;;;;;;5027090;28;20069;-47
2022/12/28 06:09:21;;;;;;;2.80;0.90;;;11.20;57.90;;;;;;5018831;28;20060;-46
2022/12/28 06:11:48;;;;;;;2.60;0.60;;;11.20;57.90;;;;;;5021748;28;20049;-49
2022/12/28 06:14:16;;;;;;;3.63;0.80;;;11.20;57.30;;;;;;5020147;28;20491;-47
2022/12/28 06:16:43;;;;;;;2.38;0.60;;;11.20;57.30;;;;;;5019768;28;20493;-47
2022/12/28 06:19:13;;;;;;;0.82;0.60;;;11.20;57.30;;;;;;5019082;28;20057;-44
2022/12/28 06:21:41;;;;;;;1.35;0.85;;;11.30;57.30;;;;;;5018650;28;20053;-44
2022/12/28 06:24:09;;;;;;;4.00;0.95;;;11.30;57.20;;;;;;5021200;28;20053;-49
2022/12/28 06:26:39;;;;;;;4.80;1.92;;;11.30;57.20;;;;;;5024221;28;20057;-45
2022/12/28 06:29:07;;;;;;;2.45;1.10;;;11.30;57.10;;;;;;5025167;28;20122;-48
2022/12/28 06:31:36;;;;;;;3.22;1.35;;;11.30;57.10;;;;;;5022792;28;20053;-46
2022/12/28 06:34:05;;;;;;;2.17;0.90;;;11.40;57.10;;;;;;5021182;28;20064;-45
2022/12/28 06:36:34;;;;;;;1.75;0.75;;;11.40;57.10;;;;;;5024207;28;20057;-44
2022/12/28 06:39:03;;;;;;;3.20;0.75;;;11.40;57.00;;;;;;5022522;28;20061;-48
2022/12/28 06:41:31;;;;;;;1.75;0.55;;;11.40;57.00;;;;;;5022645;28;20405;-48
2022/12/28 06:44:00;;;;;;;0.80;0.50;;;11.40;57.00;;;;;;5022971;28;20064;-46
2022/12/28 06:46:30;;;;;;;1.38;0.38;;;11.40;56.90;;;;;;5023989;28;20428;-46
2022/12/28 06:48:58;;;;;;;2.92;0.50;;;11.40;56.90;;;;;;5019172;28;20474;-49
2022/12/28 06:51:27;;;;;;;0.98;0.50;;;11.40;56.90;;;;;;5023286;28;20064;-44
2022/12/28 06:53:55;;;;;;;2.58;0.82;;;11.40;56.80;;;;;;5020759;28;20050;-47
2022/12/28 06:56:24;;;;;;;29.73;12.55;;;11.50;56.80;;;;;;5024159;28;20053;-44
2022/12/28 06:58:53;;;;;;;12.30;6.32;;;11.50;56.80;;;;;;5021638;28;20056;-45
2022/12/28 07:01:25;;;;;;;6.70;3.67;;;11.50;56.80;;;;;;5023496;28;20057;-46
2022/12/28 07:03:54;;;;;;;4.15;2.10;;;11.50;56.70;;;;;;5023296;28;20494;-46
2022/12/28 07:06:23;;;;;;;2.55;1.25;;;11.50;56.70;;;;;;5021856;28;20060;-44
2022/12/28 07:08:51;;;;;;;2.15;1.23;;;11.50;56.60;;;;;;5022494;28;20057;-46
2022/12/28 07:11:20;;;;;;;2.20;1.27;;;11.50;56.60;;;;;;5022561;28;20441;-47
2022/12/28 07:13:48;;;;;;;2.67;1.20;;;11.60;56.60;;;;;;5022889;28;20482;-47
2022/12/28 07:16:18;;;;;;;1.73;0.90;;;11.60;56.60;;;;;;5022444;28;20057;-45
2022/12/28 07:18:46;;;;;;;3.30;0.90;;;11.50;56.50;;;;;;5023028;28;20045;-46
2022/12/28 07:21:15;;;;;;;1.65;1.00;;;11.60;56.60;;;;;;5022791;28;20061;-44
2022/12/28 07:23:43;;;;;;;2.38;1.40;;;11.60;56.50;;;;;;5021730;28;20053;-45
2022/12/28 07:26:12;;;;;;;1.98;1.10;;;11.60;56.50;;;;;;5022648;28;20053;-44
2022/12/28 07:28:40;;;;;;;2.15;0.73;;;11.60;56.40;;;;;;5023195;28;20057;-48
2022/12/28 07:31:09;;;;;;;2.55;0.88;;;11.60;56.90;;;;;;5023199;28;20054;-46
2022/12/28 07:33:37;;;;;;;3.20;0.77;;;11.60;56.50;;;;;;5018244;28;20061;-46
2022/12/28 07:36:07;;;;;;;2.85;0.82;;;11.60;56.40;;;;;;5016957;28;20057;-45
2022/12/28 07:38:35;;;;;;;3.30;0.85;;;11.60;56.30;;;;;;5019417;28;20053;-45
2022/12/28 07:41:03;;;;;;;2.33;0.73;;;11.60;56.40;;;;;;5022654;28;20056;-47
2022/12/28 07:43:31;;;;;;;1.95;0.90;;;11.60;56.40;;;;;;5017102;28;20079;-48
2022/12/28 07:46:02;;;;;;;2.78;0.80;;;11.70;56.40;;;;;;5019557;28;20398;-47
2022/12/28 07:48:31;;;;;;;1.63;0.82;;;11.70;56.30;;;;;;5020687;28;20508;-48
2022/12/28 07:51:05;;;;;;;2.08;0.70;;;11.70;56.30;;;;;;5021719;28;20057;-47
2022/12/28 07:53:34;;;;;;;4.20;0.93;;;11.70;56.30;;;;;;5020080;28;20381;-48
2022/12/28 07:56:01;;;;;;;2.35;0.82;;;11.70;56.30;;;;;;5022114;28;20045;-44
2022/12/28 07:58:28;;;;;;;2.80;0.70;;;11.70;56.30;;;;;;5021995;28;20484;-45
2022/12/28 08:01:04;;;;;;;3.70;0.88;;;11.70;56.20;;;;;;5021337;28;20072;-49
2022/12/28 08:03:31;;;;;;;5.70;0.80;;;11.70;56.20;;;;;;5022267;28;20064;-46
2022/12/28 08:06:03;;;;;;;1.60;0.70;;;11.80;56.20;;;;;;5018716;28;20405;-50
2022/12/28 08:08:30;;;;;;;3.83;1.83;;;11.70;56.10;;;;;;5021516;28;20069;-49
2022/12/28 08:11:04;;;;;;;4.97;2.97;;;11.80;56.20;;;;;;5021899;28;20413;-45
2022/12/28 08:13:32;;;;;;;12.13;7.87;;;11.80;56.20;;;;;;5022808;28;20072;-46
2022/12/28 08:15:59;;;;;;;13.80;7.85;;;11.80;56.10;;;;;;5019400;28;20042;-46
2022/12/28 08:18:27;;;;;;;11.70;6.47;;;11.80;56.10;;;;;;5021342;28;20045;-45
2022/12/28 08:20:54;;;;;;;10.32;5.43;;;11.90;56.10;;;;;;5019357;28;20057;-48
2022/12/28 08:23:22;;;;;;;25.92;12.18;;;11.90;56.10;;;;;;5020437;28;20054;-46
2022/12/28 08:25:49;;;;;;;33.35;14.95;;;11.90;56.10;;;;;;5020268;28;20387;-47
2022/12/28 08:28:17;;;;;;;16.95;9.13;;;11.90;56.00;;;;;;5020936;28;20065;-44
2022/12/28 08:30:45;;;;;;;8.60;4.13;;;11.90;56.00;;;;;;5019279;28;20053;-46
2022/12/28 08:33:12;;;;;;;3.53;2.00;;;11.90;55.90;;;;;;5022851;28;20057;-45
2022/12/28 08:35:39;;;;;;;5.30;2.83;;;11.90;55.90;;;;;;5020592;28;20053;-47
2022/12/28 08:38:06;;;;;;;5.10;3.00;;;11.90;56.00;;;;;;5012723;28;20057;-46
2022/12/28 08:40:33;;;;;;;5.63;3.97;;;11.90;56.00;;;;;;5015409;28;20042;-45
2022/12/28 08:43:01;;;;;;;3.53;1.98;;;12.00;56.00;;;;;;5018532;28;20465;-45
2022/12/28 08:45:29;;;;;;;5.63;1.85;;;12.00;56.00;;;;;;5021240;28;20410;-47
2022/12/28 08:47:57;;;;;;;3.90;1.55;;;12.00;55.90;;;;;;5019755;28;20064;-45
2022/12/28 08:50:24;;;;;;;2.45;1.45;;;12.00;55.90;;;;;;5015889;28;20053;-44
2022/12/28 08:52:51;;;;;;;4.05;1.20;;;12.00;55.90;;;;;;5020908;28;20056;-45
2022/12/28 08:55:18;;;;;;;2.70;1.30;;;12.00;55.90;;;;;;5020137;28;20520;-44
2022/12/28 08:57:45;;;;;;;4.43;1.70;;;12.00;55.80;;;;;;5020324;28;20528;-45
2022/12/28 09:00:14;;;;;;;3.58;1.30;;;12.10;55.90;;;;;;5015024;28;20057;-45
2022/12/28 09:02:42;;;;;;;3.78;1.50;;;12.10;55.90;;;;;;5020180;28;20564;-49
2022/12/28 09:05:10;;;;;;;3.13;1.35;;;12.10;55.80;;;;;;5021606;28;20056;-47
2022/12/28 09:07:37;;;;;;;2.80;1.40;;;12.10;55.80;;;;;;5019102;28;20056;-44
2022/12/28 09:10:05;;;;;;;3.28;1.05;;;12.10;55.80;;;;;;5018649;28;20064;-46
2022/12/28 09:12:32;;;;;;;2.75;1.00;;;12.10;55.80;;;;;;5021303;28;20062;-48
2022/12/28 09:14:59;;;;;;;4.95;1.10;;;12.10;55.80;;;;;;5018992;28;20525;-47
2022/12/28 09:17:27;;;;;;;3.25;1.35;;;12.10;55.80;;;;;;5018926;28;20072;-46
2022/12/28 09:19:55;;;;;;;5.90;1.60;;;12.20;55.80;;;;;;5019720;28;20049;-45
2022/12/28 09:22:22;;;;;;;3.83;1.30;;;12.20;55.70;;;;;;5018863;28;20053;-46
2022/12/28 09:24:50;;;;;;;3.53;1.20;;;12.20;55.70;;;;;;5019281;28;20053;-48
2022/12/28 09:27:17;;;;;;;5.97;1.33;;;12.20;55.70;;;;;;5017942;28;20057;-47
2022/12/28 09:29:44;;;;;;;8.88;1.38;;;12.20;55.70;;;;;;5021088;28;20049;-45
2022/12/28 09:32:11;;;;;;;3.95;0.85;;;12.20;55.60;;;;;;5018729;28;20053;-45
2022/12/28 09:34:39;;;;;;;2.85;1.23;;;12.30;55.70;;;;;;5014670;28;20060;-45
2022/12/28 09:37:08;;;;;;;2.70;2.15;;;12.30;55.70;;;;;;5008621;28;20060;-50
2022/12/28 09:39:35;;;;;;;3.80;1.33;;;12.20;55.60;;;;;;5019568;28;20049;-47
2022/12/28 09:42:05;;;;;;;3.13;1.45;;;12.30;55.70;;;;;;5019045;28;20061;-46
2022/12/28 09:44:43;;;;;;;2.35;1.00;;;12.30;55.70;;;;;;5015747;28;20516;-44
2022/12/28 09:47:18;;;;;;;3.22;1.45;;;12.30;55.60;;;;;;5020621;28;20417;-49
2022/12/28 09:49:52;;;;;;;2.50;1.15;;;12.30;55.60;;;;;;5018227;28;20049;-45
2022/12/28 09:52:29;;;;;;;5.40;1.50;;;12.30;55.60;;;;;;5019516;28;20045;-47
2022/12/28 09:55:04;;;;;;;1.45;0.90;;;12.30;55.50;;;;;;5018593;28;20057;-44
2022/12/28 09:57:37;;;;;;;4.15;0.90;;;12.40;55.60;;;;;;5019694;28;20041;-47
2022/12/28 10:00:07;;;;;;;3.63;1.08;;;12.40;55.60;;;;;;5020406;28;20064;-47
2022/12/28 10:02:38;;;;;;;3.13;1.05;;;12.40;55.60;;;;;;5019386;28;20049;-46
2022/12/28 10:05:07;;;;;;;5.00;1.10;;;12.40;55.60;;;;;;5019831;28;20437;-48
2022/12/28 10:07:37;;;;;;;4.32;0.93;;;12.40;55.60;;;;;;5017110;28;20493;-45
2022/12/28 10:10:05;;;;;;;3.67;0.90;;;12.40;55.60;;;;;;5018861;28;20053;-48
2022/12/28 10:12:33;;;;;;;3.45;1.08;;;12.40;55.60;;;;;;5021110;28;20053;-47
2022/12/28 10:15:00;;;;;;;3.63;0.95;;;12.40;55.50;;;;;;5020243;28;20057;-46
2022/12/28 10:17:29;;;;;;;3.92;1.65;;;12.50;55.60;;;;;;5017098;28;20050;-50
2022/12/28 10:19:59;;;;;;;5.63;1.65;;;12.50;55.50;;;;;;5016571;28;20045;-47
2022/12/28 10:22:29;;;;;;;4.00;1.08;;;12.50;55.50;;;;;;5019944;28;20060;-48
2022/12/28 10:24:58;;;;;;;4.10;1.17;;;12.50;56.00;;;;;;5019659;28;20046;-48
2022/12/28 10:27:30;;;;;;;4.13;1.80;;;12.50;55.40;;;;;;5017907;28;20046;-46
2022/12/28 10:30:01;;;;;;;3.03;1.42;;;12.50;55.30;;;;;;5020086;28;20497;-48
2022/12/28 10:32:48;;;;;;;6.60;2.08;;;12.50;55.80;;;;;;5017607;28;20049;-47
2022/12/28 10:35:27;;;;;;;3.25;1.70;;;12.60;55.30;;;;;;5016852;28;20844;-45
2022/12/28 10:38:00;;;;;;;4.55;2.42;;;12.50;55.30;;;;;;5016564;28;20046;-50
2022/12/28 10:40:32;;;;;;;3.83;1.52;;;12.60;55.30;;;;;;5019317;28;20060;-46
2022/12/28 10:43:00;;;;;;;5.68;1.55;;;12.60;55.30;;;;;;5022612;28;20065;-47
2022/12/28 10:45:36;;;;;;;5.32;1.63;;;12.60;55.20;;;;;;5019998;28;20049;-48
2022/12/28 10:48:10;;;;;;;3.67;1.20;;;12.60;55.20;;;;;;5022676;28;20064;-49
2022/12/28 10:50:41;;;;;;;3.17;1.48;;;12.60;55.10;;;;;;5021030;28;20053;-44
2022/12/28 10:53:19;;;;;;;3.55;1.23;;;12.60;55.10;;;;;;5021063;28;20800;-46
2022/12/28 10:55:48;;;;;;;5.22;1.23;;;12.60;55.10;;;;;;5020926;28;20474;-47
2022/12/28 10:58:20;;;;;;;2.85;1.45;;;12.70;55.10;;;;;;5021535;28;20060;-47
2022/12/28 11:00:55;;;;;;;5.80;1.17;;;12.60;55.10;;;;;;5018773;28;20509;-46
2022/12/28 11:03:27;;;;;;;4.85;1.20;;;12.70;55.10;;;;;;5021992;28;20058;-46
2022/12/28 11:06:15;;;;;;;3.00;1.02;;;12.70;55.10;;;;;;5018329;28;20049;-46
2022/12/28 11:08:45;;;;;;;4.20;1.13;;;12.70;55.00;;;;;;5018714;28;20545;-44
2022/12/28 11:11:22;;;;;;;4.95;1.30;;;12.70;54.90;;;;;;5024711;28;20069;-46
2022/12/28 11:13:54;;;;;;;5.60;1.30;;;12.70;54.90;;;;;;5019558;28;20053;-47
2022/12/28 11:16:21;;;;;;;6.15;2.00;;;12.80;54.90;;;;;;5025351;28;20057;-44
2022/12/28 11:18:49;;;;;;;5.30;1.67;;;12.70;54.80;;;;;;5023190;28;20489;-44
2022/12/28 11:21:20;;;;;;;4.93;2.47;;;12.80;54.80;;;;;;5023583;28;20068;-47
2022/12/28 11:23:48;;;;;;;7.97;2.75;;;12.70;54.70;;;;;;5022704;28;20727;-44
2022/12/28 11:26:16;;;;;;;3.70;1.55;;;12.80;54.70;;;;;;5023736;28;20061;-45
2022/12/28 11:28:48;;;;;;;10.60;1.70;;;12.80;54.70;;;;;;5024434;28;20049;-49
2022/12/28 11:31:21;;;;;;;3.30;2.00;;;12.80;54.60;;;;;;5023450;28;20053;-46
2022/12/28 11:33:51;;;;;;;4.70;1.33;;;12.80;54.70;;;;;;5023237;28;20065;-48
2022/12/28 11:36:22;;;;;;;4.47;1.17;;;12.80;54.90;;;;;;5019939;28;20060;-46
2022/12/28 11:38:51;;;;;;;3.72;1.20;;;12.80;54.40;;;;;;5021986;28;20057;-48
2022/12/28 11:41:49;;;;;;;4.22;1.30;;;12.80;54.30;;;;;;5023776;28;20057;-47
2022/12/28 11:44:24;;;;;;;3.03;1.52;;;12.80;54.30;;;;;;4990600;28;20435;-45
2022/12/28 11:47:02;;;;;;;4.07;1.27;;;12.80;54.20;;;;;;5022475;28;20409;-44
2022/12/28 11:49:33;;;;;;;5.45;1.70;;;12.80;54.00;;;;;;5023177;28;20064;-48
2022/12/28 11:52:45;;;;;;;5.88;1.90;;;12.80;54.10;;;;;;5023904;28;20576;-49
2022/12/28 11:55:50;;;;;;;2.95;1.40;;;12.80;54.00;;;;;;5022409;28;20064;-45
2022/12/28 11:58:44;;;;;;;4.22;1.00;;;12.80;54.00;;;;;;5023658;28;20057;-45
2022/12/28 12:01:56;;;;;;;3.47;1.10;;;12.80;54.00;;;;;;5024696;28;20410;-46
2022/12/28 12:04:37;;;;;;;3.95;1.88;;;12.80;53.80;;;;;;5006559;28;20061;-44
2022/12/28 12:07:55;;;;;;;4.97;1.35;;;12.80;53.90;;;;;;5023147;28;20045;-46
2022/12/28 12:10:33;;;;;;;2.67;0.98;;;12.80;53.80;;;;;;5021730;28;20509;-45
2022/12/28 12:13:02;;;;;;;2.63;0.75;;;12.80;53.80;;;;;;5023841;28;20057;-50
2022/12/28 12:15:38;;;;;;;8.88;1.67;;;12.80;53.80;;;;;;5023812;28;20056;-45
2022/12/28 12:18:08;;;;;;;5.03;1.15;;;12.80;53.90;;;;;;5023245;28;20450;-47
2022/12/28 12:20:57;;;;;;;2.35;0.88;;;12.90;54.00;;;;;;5022989;28;20050;-45
2022/12/28 12:23:40;;;;;;;2.95;1.10;;;12.80;53.80;;;;;;5021002;28;20080;-45
2022/12/28 12:26:20;;;;;;;2.25;0.98;;;12.90;53.90;;;;;;5023652;28;20053;-44
2022/12/28 12:28:50;;;;;;;3.42;1.20;;;12.90;53.80;;;;;;5023976;28;20045;-45
2022/12/28 12:31:25;;;;;;;2.88;1.20;;;12.80;54.30;;;;;;5021954;28;20057;-45
2022/12/28 12:33:57;;;;;;;1.67;0.80;;;12.90;53.80;;;;;;5022883;28;20418;-46
2022/12/28 12:36:46;;;;;;;2.10;0.90;;;12.90;53.80;;;;;;5024489;28;20060;-45
2022/12/28 12:39:41;;;;;;;1.17;0.70;;;12.90;53.50;;;;;;5021460;28;20049;-45
2022/12/28 12:42:16;;;;;;;3.60;1.10;;;12.90;53.50;;;;;;5023463;28;20062;-47
2022/12/28 12:44:53;;;;;;;2.75;0.75;;;12.90;53.40;;;;;;5021762;28;20058;-48
2022/12/28 12:47:39;;;;;;;2.63;0.90;;;12.90;53.20;;;;;;5024303;28;20487;-48
2022/12/28 12:50:31;;;;;;;3.78;0.80;;;13.00;53.30;;;;;;5023809;28;20061;-50
2022/12/28 12:53:05;;;;;;;3.65;1.40;;;13.00;53.50;;;;;;5021003;28;20056;-46
2022/12/28 12:55:49;;;;;;;3.22;1.80;;;13.00;53.30;;;;;;5022566;28;20054;-46
2022/12/28 12:58:22;;;;;;;5.35;2.47;;;13.00;53.20;;;;;;5021082;28;20065;-46
2022/12/28 13:01:03;;;;;;;3.00;1.15;;;13.00;53.30;;;;;;5014671;28;20045;-48
2022/12/28 13:03:38;;;;;;;4.07;1.20;;;13.00;53.30;;;;;;5022983;28;20053;-49
2022/12/28 13:06:06;;;;;;;3.33;1.55;;;13.00;53.30;;;;;;5020490;28;20061;-46
2022/12/28 13:08:40;;;;;;;4.68;1.27;;;13.00;53.30;;;;;;5019151;28;20055;-47
2022/12/28 13:11:09;;;;;;;3.10;1.10;;;13.00;53.10;;;;;;5022268;28;20084;-50
2022/12/28 13:13:39;;;;;;;3.08;1.20;;;13.00;53.20;;;;;;5023451;28;20057;-50
2022/12/28 13:16:10;;;;;;;1.95;0.70;;;13.00;53.20;;;;;;5023645;28;20069;-46
2022/12/28 13:18:38;;;;;;;1.88;0.90;;;13.00;53.00;;;;;;5019940;28;20054;-46
2022/12/28 13:21:06;;;;;;;3.22;0.93;;;13.10;52.90;;;;;;5023113;28;20065;-48
2022/12/28 13:23:43;;;;;;;2.28;1.00;;;13.10;52.90;;;;;;5019297;28;20058;-49
2022/12/28 13:26:12;;;;;;;6.72;1.15;;;13.10;52.90;;;;;;5022562;28;20064;-48
2022/12/28 13:28:47;;;;;;;3.95;2.05;;;13.10;53.00;;;;;;5021412;28;20389;-48
2022/12/28 13:31:18;;;;;;;6.47;1.77;;;13.10;52.70;;;;;;5023599;28;20061;-47
2022/12/28 13:33:55;;;;;;;5.10;1.50;;;13.00;52.70;;;;;;5022219;28;20069;-45
2022/12/28 13:36:22;;;;;;;4.15;1.55;;;13.10;52.80;;;;;;5021871;28;20057;-47